Quad City International Airport
KMLI : now visible

Airfield :











YOU CAN JOIN US ON...

 
LOGIN :

Register | Disclaimer

   EN    FR    IT 

 









Legend :    VFR   Marginal VFR   IFR   Intensive IFR   Very Intensive IFR
Visi :
Ceiling :
>= 8 km
>= 3000ft
5 to 8 km
1000 to 3000 ft
1500m to 5 km
500 to 1000 ft
800 to 1500m
200 to 500 ft
< 800m
< 200 ft
Symbols :   Thunderstorms  Fog  Heavy snow  Heavy precipitations  Wind > 20 kt







- Airport Elevation : 590 ft
- IATA code : MLI


KMLI - Quad City International

CURRENT METAR :
  • 210152Z 26017G28KT 10SM OVC036 02/M04 A2983 RMK AO2 PK WND 25033/0140 SLP107 T00171044

EXPIRED METARs :
  • 210052Z 25015G24KT 10SM SCT028 OVC036 02/M02 A2980 RMK AO2 SLP097 T00221022
  • 210031Z 25014KT 10SM BKN028 OVC034 02/M02 A2978 RMK AO2 T00221022
  • 202352Z 25011G19KT 10SM FEW021 FEW025 OVC035 02/M01 A2976 RMK AO2 SLP083 T00221006 10022 20017 53024

TAF KMLI
Valid from the 21 at 01:00 until the 22 at 00:00 UTC


210118Z 2101/2124 25015G25KT P6SM SCT014 OVC035
FM210500 26011KT P6SM SCT050
KZAU FIR / North America



MET'MAP, your aeronautical weather chart ! - Copyright ORBIFLY December 2007 - Disclaimer

ORBIFLY MET'MAP TEAM :

Programming & Development : Alexandra Zaïnal
Concept & Development : Baudouin d'Aumeries
Co-Development & Prog : Marc-Olivier Méhu
Technical & hardware support : Manuel Goepfert

Contact : metmap@orbifly.com




SOURCES & CREDITS :

   NOAA       Earth
Advisory